Serra da Canastra, Brazil
Current Conditions -  °F | °C
As of 6:00 PM on Tuesday 21 Oct 2014 (Local Time) from SBUR Reporting Station
Few Clouds Few Clouds  
Wind Chill: 84°   Ceiling: Unl
Heat Index: 84°   Visibility: 6mi
Dew Point: 55°   Wind: 8mph
Humidity: 37%   Direction: 90°E
Pressure: 29.94"   Gusts: NA
Location:  20.25°S, 46.37°W
Report Text: SBUR 212000Z 09007KT 9999 FEW045 FEW050TCU 29/13 Q1014
Loading
Personal Weather Stations






























Interactive Weather Map
Tropical Storm Tracking
New forecast layout! Learn more

10-Day Weather Forecast

Advertisements
Track Severe Weather on mobile